Jakin, Georgia
Current Conditions -  °F | °C
As of 8:53 AM on Thursday 30 Oct 2014 (Local Time) from KMAI Reporting Station
Broken Clouds Broken Clouds  
Wind Chill: 61°   Ceiling: 12000
Heat Index: 61°   Visibility: 10mi
Dew Point: 46°   Wind: 7mph
Humidity: 58%   Direction: 20°NNE
Pressure: 30.05"   Gusts: NA
Location:  31.09°N, 84.98°W
Report Text: KMAI 301253Z AUTO 02006KT 10SM FEW037 SCT055 BKN120 16/08 A3005 RMK AO2 RAE48 SLP173 P0000 T01610078
Loading
Personal Weather Stations






























Interactive Weather Map
Tropical Storm Tracking
New forecast layout! Learn more

10-Day Weather Forecast

Advertisements
Track Severe Weather on mobile